createdAt,value
2019-04-06T00:01:54.852Z,99.03
2019-04-06T00:04:22.833Z,99.83
2019-04-06T00:06:52.211Z,101.70
2019-04-06T00:09:20.234Z,100.83
2019-04-06T00:11:50.004Z,108.33
2019-04-06T00:14:18.014Z,104.43
2019-04-06T00:16:46.090Z,103.93
2019-04-06T00:19:14.142Z,100.30
2019-04-06T00:21:42.491Z,103.47
2019-04-06T00:24:10.535Z,97.83
2019-04-06T00:26:38.579Z,104.70
2019-04-06T00:29:06.619Z,103.97
2019-04-06T00:31:53.740Z,105.30
2019-04-06T00:34:22.324Z,102.17
2019-04-06T00:36:53.164Z,100.97
2019-04-06T00:39:21.251Z,102.60
2019-04-06T00:41:49.314Z,101.70
2019-04-06T00:44:17.793Z,95.67
2019-04-06T00:46:45.890Z,97.33
2019-04-06T00:49:13.911Z,101.83
2019-04-06T00:51:42.264Z,105.93
2019-04-06T00:54:10.367Z,108.30
2019-04-06T00:56:39.254Z,101.23
2019-04-06T00:59:07.296Z,97.63
2019-04-06T01:01:36.727Z,97.50
2019-04-06T01:04:04.805Z,98.13
2019-04-06T01:06:32.853Z,98.27
2019-04-06T01:09:02.563Z,103.57
2019-04-06T01:11:30.757Z,93.00
2019-04-06T01:13:58.884Z,106.00
2019-04-06T01:16:27.104Z,98.50
2019-04-06T01:18:55.236Z,93.03
2019-04-06T01:21:23.323Z,96.27
2019-04-06T01:23:51.523Z,87.73
2019-04-06T01:26:19.553Z,88.87
2019-04-06T01:28:47.606Z,89.43
2019-04-06T01:31:15.647Z,80.93
2019-04-06T01:33:43.746Z,83.40
2019-04-06T01:36:11.779Z,82.70
2019-04-06T01:38:39.890Z,79.33
2019-04-06T01:41:07.953Z,83.83
2019-04-06T01:43:35.986Z,86.20
2019-04-06T01:46:04.070Z,81.83
2019-04-06T01:48:32.105Z,83.57
2019-04-06T01:51:00.155Z,78.23
2019-04-06T01:53:28.164Z,86.40
2019-04-06T01:55:56.240Z,90.07
2019-04-06T01:58:24.334Z,93.00
2019-04-06T02:01:08.630Z,89.27
2019-04-06T02:03:36.681Z,96.27
2019-04-06T02:06:04.767Z,102.43
2019-04-06T02:08:32.803Z,96.87
2019-04-06T02:11:00.898Z,94.70
2019-04-06T02:13:28.897Z,98.17
2019-04-06T02:15:56.923Z,101.63
2019-04-06T02:18:27.190Z,105.53
2019-04-06T02:20:55.330Z,103.90
2019-04-06T02:23:23.389Z,104.00
2019-04-06T02:25:51.433Z,105.07
2019-04-06T02:28:19.491Z,96.30
2019-04-06T02:31:05.636Z,105.70
2019-04-06T02:33:51.058Z,101.27
2019-04-06T02:36:44.028Z,106.20
2019-04-06T02:39:31.082Z,97.40
2019-04-06T02:42:08.301Z,100.70
2019-04-06T02:44:36.445Z,106.93
2019-04-06T02:47:04.516Z,94.60
2019-04-06T02:49:32.552Z,104.77
2019-04-06T02:52:00.639Z,101.47
2019-04-06T02:54:28.660Z,98.50
2019-04-06T02:56:56.948Z,100.13
2019-04-06T02:59:25.046Z,90.30
2019-04-06T03:01:53.978Z,91.47
2019-04-06T03:04:21.989Z,96.50
2019-04-06T03:06:50.064Z,96.80
2019-04-06T03:09:18.129Z,95.40
2019-04-06T03:11:46.361Z,98.10
2019-04-06T03:14:14.375Z,93.63
2019-04-06T03:16:42.448Z,88.07
2019-04-06T03:19:10.471Z,89.73
2019-04-06T03:21:38.530Z,99.63
2019-04-06T03:24:06.575Z,93.73
2019-04-06T03:26:34.606Z,91.27
2019-04-06T03:29:02.679Z,85.40
2019-04-06T03:31:30.715Z,91.93
2019-04-06T03:33:59.078Z,95.07
2019-04-06T03:36:27.169Z,94.50
2019-04-06T03:38:55.370Z,96.97
2019-04-06T03:41:23.442Z,89.47
2019-04-06T03:43:51.517Z,85.77
2019-04-06T03:46:19.532Z,90.30
2019-04-06T03:48:47.548Z,83.87
2019-04-06T03:51:15.570Z,87.93
2019-04-06T03:53:43.571Z,86.10
2019-04-06T03:56:11.584Z,87.33
2019-04-06T03:58:39.659Z,89.57
2019-04-06T04:01:07.724Z,82.20
2019-04-06T04:03:36.131Z,84.10
2019-04-06T04:06:04.847Z,78.20
2019-04-06T04:08:33.446Z,81.33
2019-04-06T04:11:03.594Z,79.10
2019-04-06T04:13:31.663Z,83.53
2019-04-06T04:15:59.772Z,63.37
2019-04-06T04:18:27.820Z,74.57
2019-04-06T04:20:55.880Z,65.10
2019-04-06T04:23:24.212Z,62.90
2019-04-06T04:25:52.240Z,70.17
2019-04-06T04:28:20.210Z,66.87
2019-04-06T04:30:48.204Z,71.03
2019-04-06T04:33:16.417Z,68.57
2019-04-06T04:35:44.546Z,70.80
2019-04-06T04:38:12.550Z,69.43
2019-04-06T04:40:40.608Z,71.20
2019-04-06T04:43:08.618Z,63.90
2019-04-06T04:45:36.651Z,63.53
2019-04-06T04:48:04.646Z,65.13
2019-04-06T04:50:33.173Z,61.93
2019-04-06T04:53:01.267Z,64.57
2019-04-06T04:55:30.199Z,67.73
2019-04-06T04:57:58.253Z,62.77
2019-04-06T05:00:26.439Z,58.97
2019-04-06T05:02:54.678Z,62.30
2019-04-06T05:05:22.814Z,55.03
2019-04-06T05:07:50.913Z,52.97
2019-04-06T05:10:19.099Z,48.70
2019-04-06T05:12:47.143Z,56.50
2019-04-06T05:15:18.023Z,57.83
2019-04-06T05:17:46.086Z,54.50
2019-04-06T05:20:14.117Z,51.80
2019-04-06T05:22:42.141Z,50.90
2019-04-06T05:25:10.470Z,49.97
2019-04-06T05:27:38.536Z,47.23
2019-04-06T05:30:07.269Z,51.80
2019-04-06T05:32:35.224Z,50.00
2019-04-06T05:35:03.597Z,44.40
2019-04-06T05:37:31.613Z,42.60
2019-04-06T05:39:59.630Z,48.60
2019-04-06T05:42:27.713Z,47.53
2019-04-06T05:44:55.734Z,41.97
2019-04-06T05:47:24.233Z,40.10
2019-04-06T05:49:52.553Z,41.57
2019-04-06T05:52:21.491Z,41.83
2019-04-06T05:54:49.550Z,42.13
2019-04-06T05:57:17.633Z,42.63
2019-04-06T05:59:47.595Z,40.23
2019-04-06T06:02:15.874Z,41.03
2019-04-06T06:04:44.726Z,40.70
2019-04-06T06:07:16.502Z,41.40
2019-04-06T06:09:44.722Z,39.50
2019-04-06T06:12:14.720Z,38.33
2019-04-06T06:14:43.098Z,38.13
2019-04-06T06:17:11.238Z,35.57
2019-04-06T06:19:39.743Z,32.23
2019-04-06T06:22:08.131Z,32.60
2019-04-06T06:24:38.138Z,35.23
2019-04-06T06:27:06.565Z,34.80
2019-04-06T06:29:34.968Z,32.63
2019-04-06T06:32:03.069Z,29.83
2019-04-06T06:34:31.041Z,30.93
2019-04-06T06:36:59.049Z,32.20
2019-04-06T06:39:27.480Z,29.40
2019-04-06T06:41:55.729Z,31.27
2019-04-06T06:44:23.720Z,28.37
2019-04-06T06:46:51.804Z,29.70
2019-04-06T06:49:19.797Z,27.90
2019-04-06T06:51:48.270Z,29.57
2019-04-06T06:54:16.649Z,30.23
2019-04-06T06:56:44.975Z,29.83
2019-04-06T06:59:13.025Z,33.43
2019-04-06T07:01:41.066Z,28.93
2019-04-06T07:04:09.287Z,31.07
2019-04-06T07:06:37.548Z,29.57
2019-04-06T07:09:06.600Z,30.53
2019-04-06T07:11:34.677Z,27.77
2019-04-06T07:14:02.699Z,34.07
2019-04-06T07:16:30.790Z,33.03
2019-04-06T07:18:58.863Z,33.70
2019-04-06T07:21:27.183Z,30.80
2019-04-06T07:23:56.659Z,32.53
2019-04-06T07:26:24.680Z,34.90
2019-04-06T07:28:56.114Z,30.73
2019-04-06T07:31:30.771Z,32.30
2019-04-06T07:34:02.921Z,31.83
2019-04-06T07:36:30.907Z,29.13
2019-04-06T07:38:58.935Z,29.07
2019-04-06T07:41:27.030Z,29.53
2019-04-06T07:43:55.023Z,37.30
2019-04-06T07:46:23.244Z,31.33
2019-04-06T07:48:51.267Z,29.80
2019-04-06T07:51:19.323Z,28.63
2019-04-06T07:53:47.323Z,33.53
2019-04-06T07:56:15.354Z,28.17
2019-04-06T07:58:49.140Z,28.37
2019-04-06T08:01:13.035Z,34.73
2019-04-06T08:03:41.071Z,30.23
2019-04-06T08:06:09.306Z,31.67
2019-04-06T08:08:37.375Z,28.73
2019-04-06T08:11:05.372Z,29.00
2019-04-06T08:13:33.419Z,29.87
2019-04-06T08:16:01.526Z,33.40
2019-04-06T08:18:29.626Z,33.43
2019-04-06T08:20:57.677Z,28.27
2019-04-06T08:23:25.735Z,27.10
2019-04-06T08:25:54.020Z,29.63
2019-04-06T08:28:22.164Z,28.07
2019-04-06T08:30:50.185Z,29.20
2019-04-06T08:33:18.208Z,26.77
2019-04-06T08:35:46.352Z,28.40
2019-04-06T08:38:14.421Z,28.30
2019-04-06T08:40:42.492Z,28.77
2019-04-06T08:43:10.567Z,29.70
2019-04-06T08:45:38.754Z,28.53
2019-04-06T08:48:06.775Z,28.70
2019-04-06T08:50:34.782Z,28.10
2019-04-06T08:53:02.742Z,28.13
2019-04-06T08:55:30.945Z,33.87
2019-04-06T08:57:59.148Z,31.87
2019-04-06T09:00:27.258Z,30.00
2019-04-06T09:02:55.332Z,27.90
2019-04-06T09:05:23.580Z,29.80
2019-04-06T09:07:52.028Z,28.43
2019-04-06T09:10:20.052Z,32.47
2019-04-06T09:12:48.563Z,29.60
2019-04-06T09:15:17.239Z,28.77
2019-04-06T09:17:45.779Z,29.20
2019-04-06T09:20:14.042Z,28.40
2019-04-06T09:22:42.283Z,30.60
2019-04-06T09:25:10.284Z,26.93
2019-04-06T09:27:38.709Z,29.93
2019-04-06T09:30:07.104Z,27.33
2019-04-06T09:32:35.252Z,28.83
2019-04-06T09:35:03.246Z,26.47
2019-04-06T09:37:31.237Z,26.93
2019-04-06T09:39:59.240Z,27.17
2019-04-06T09:42:27.354Z,25.83
2019-04-06T09:45:14.351Z,28.27
2019-04-06T09:47:51.471Z,25.03
2019-04-06T09:50:38.874Z,28.67
2019-04-06T09:53:28.878Z,29.30
2019-04-06T09:56:25.042Z,28.63
2019-04-06T09:59:17.584Z,27.87
2019-04-06T10:02:01.337Z,26.03
2019-04-06T10:04:45.375Z,29.53
2019-04-06T10:07:29.442Z,26.87
2019-04-06T10:10:06.712Z,24.60
2019-04-06T10:12:51.944Z,27.77
2019-04-06T10:15:42.508Z,27.23
2019-04-06T10:18:29.817Z,29.80
2019-04-06T10:21:31.878Z,26.80
2019-04-06T10:24:17.332Z,25.70
2019-04-06T10:27:04.957Z,29.30
2019-04-06T10:30:09.956Z,26.00
2019-04-06T10:32:44.597Z,25.77
2019-04-06T10:35:34.330Z,25.90
2019-04-06T10:38:33.348Z,23.13
2019-04-06T10:41:24.019Z,24.20
2019-04-06T10:44:11.265Z,23.43
2019-04-06T10:46:58.289Z,26.80
2019-04-06T10:49:48.458Z,28.63
2019-04-06T10:52:35.738Z,24.43
2019-04-06T10:55:22.866Z,21.50
2019-04-06T10:58:12.674Z,22.50
2019-04-06T11:00:58.230Z,23.17
2019-04-06T11:03:34.877Z,24.07
2019-04-06T11:06:10.507Z,25.15
2019-04-06T11:09:03.286Z,21.70
2019-04-06T11:11:54.027Z,24.25
2019-04-06T11:14:32.581Z,23.12
2019-04-06T11:17:18.175Z,22.43
2019-04-06T11:19:56.504Z,23.80
2019-04-06T11:22:32.259Z,23.70
2019-04-06T11:25:15.732Z,25.12
2019-04-06T11:27:52.845Z,20.30
2019-04-06T11:30:37.403Z,23.27
2019-04-06T11:33:26.155Z,23.10
2019-04-06T11:36:02.227Z,22.10
2019-04-06T11:38:49.382Z,22.80
2019-04-06T11:41:36.365Z,23.80
2019-04-06T11:44:23.471Z,21.00
2019-04-06T11:47:15.372Z,23.13
2019-04-06T11:50:17.241Z,19.63
2019-04-06T11:53:02.850Z,23.67
2019-04-06T11:55:38.374Z,19.87
2019-04-06T11:58:12.514Z,21.43
2019-04-06T12:00:52.780Z,16.03
2019-04-06T12:03:26.696Z,20.68
2019-04-06T12:06:20.763Z,19.20
2019-04-06T12:09:06.324Z,24.77
2019-04-06T12:11:41.256Z,21.73
2019-04-06T12:14:29.999Z,20.50
2019-04-06T12:17:17.125Z,21.95
2019-04-06T12:20:02.504Z,19.27
2019-04-06T12:22:52.541Z,20.87
2019-04-06T12:25:32.179Z,21.60
2019-04-06T12:28:25.339Z,18.40
2019-04-06T12:31:07.071Z,21.15
2019-04-06T12:33:54.394Z,19.90
2019-04-06T12:36:27.470Z,19.33
2019-04-06T12:39:14.436Z,20.83
2019-04-06T12:42:01.800Z,19.98
2019-04-06T12:44:47.508Z,19.90
2019-04-06T12:47:35.227Z,21.43
2019-04-06T12:50:21.619Z,19.15
2019-04-06T12:52:58.573Z,21.63
2019-04-06T12:56:00.464Z,20.15
2019-04-06T12:58:44.430Z,22.30
2019-04-06T13:01:34.830Z,21.97
2019-04-06T13:04:21.079Z,19.57
2019-04-06T13:07:06.946Z,18.45
2019-04-06T13:10:09.750Z,18.50
2019-04-06T13:12:50.752Z,19.07
2019-04-06T13:15:38.209Z,20.37
2019-04-06T13:18:15.103Z,18.48
2019-04-06T13:21:11.316Z,25.37
2019-04-06T13:24:13.497Z,18.37
2019-04-06T13:27:03.126Z,18.63
2019-04-06T13:29:50.246Z,18.07
2019-04-06T13:32:36.898Z,19.62
2019-04-06T13:35:11.306Z,21.70
2019-04-06T13:37:56.774Z,19.95
2019-04-06T13:40:55.635Z,20.70
2019-04-06T13:43:45.657Z,18.73
2019-04-06T13:46:33.222Z,19.75
2019-04-06T13:49:23.161Z,20.45
2019-04-06T13:52:08.734Z,20.40
2019-04-06T13:54:54.280Z,18.70
2019-04-06T13:57:47.258Z,16.60
2019-04-06T14:00:26.734Z,15.88
2019-04-06T14:03:01.640Z,15.93
2019-04-06T14:05:44.971Z,16.82
2019-04-06T14:08:21.795Z,16.45
2019-04-06T14:11:09.137Z,14.20
2019-04-06T14:13:56.665Z,16.25
2019-04-06T14:16:44.807Z,16.60
2019-04-06T14:19:28.487Z,17.70
2019-04-06T14:22:13.871Z,17.67
2019-04-06T14:25:03.744Z,15.30
2019-04-06T14:27:42.489Z,14.90
2019-04-06T14:30:29.954Z,14.47
2019-04-06T14:33:25.847Z,15.15
2019-04-06T14:36:21.879Z,14.37
2019-04-06T14:39:20.807Z,15.83
2019-04-06T14:42:08.484Z,17.90
2019-04-06T14:44:53.829Z,15.00
2019-04-06T14:47:40.882Z,16.42
2019-04-06T14:50:28.755Z,16.20
2019-04-06T14:53:25.033Z,15.05
2019-04-06T14:56:01.850Z,15.10
2019-04-06T14:58:51.807Z,14.80
2019-04-06T15:01:45.445Z,14.07
2019-04-06T15:04:18.198Z,13.68
2019-04-06T15:07:11.945Z,14.60
2019-04-06T15:10:00.096Z,12.37
2019-04-06T15:12:53.752Z,13.88
2019-04-06T15:15:46.656Z,13.27
2019-04-06T15:18:28.734Z,15.07
2019-04-06T15:21:30.976Z,13.80
2019-04-06T15:24:12.631Z,15.77
2019-04-06T15:27:02.385Z,16.48
2019-04-06T15:29:41.994Z,15.68
2019-04-06T15:32:43.981Z,15.23
2019-04-06T15:35:29.747Z,15.30
2019-04-06T15:38:05.886Z,16.05
2019-04-06T15:41:11.123Z,17.65
2019-04-06T15:43:58.243Z,17.98
2019-04-06T15:46:36.995Z,15.70
2019-04-06T15:49:33.060Z,17.37
2019-04-06T15:52:37.940Z,19.83
2019-04-06T15:55:18.378Z,16.45
2019-04-06T15:58:05.420Z,15.73
2019-04-06T16:00:48.856Z,16.50
2019-04-06T16:03:34.469Z,14.83
2019-04-06T16:06:08.512Z,15.98
2019-04-06T16:08:53.001Z,16.77
2019-04-06T16:11:38.857Z,15.55
2019-04-06T16:14:31.972Z,15.63
2019-04-06T16:17:06.325Z,15.28
2019-04-06T16:19:55.656Z,16.50
2019-04-06T16:22:39.706Z,14.60
2019-04-06T16:25:27.177Z,14.07
2019-04-06T16:28:16.750Z,14.58
2019-04-06T16:31:03.676Z,14.27
2019-04-06T16:33:51.073Z,15.65
2019-04-06T16:36:38.422Z,16.25
2019-04-06T16:39:37.666Z,16.03
2019-04-06T16:42:23.354Z,13.80
2019-04-06T16:45:13.007Z,15.25
2019-04-06T16:47:49.850Z,16.10
2019-04-06T16:50:36.194Z,15.78
2019-04-06T16:53:23.287Z,13.75
2019-04-06T16:56:15.816Z,19.73
2019-04-06T16:58:53.931Z,12.70
2019-04-06T17:01:30.246Z,14.33
2019-04-06T17:04:15.745Z,15.17
2019-04-06T17:07:07.291Z,14.30
2019-04-06T17:09:51.449Z,14.73
2019-04-06T17:12:35.411Z,14.90
2019-04-06T17:15:28.136Z,15.13
2019-04-06T17:18:06.877Z,15.00
2019-04-06T17:20:52.494Z,13.73
2019-04-06T17:23:42.456Z,17.40
2019-04-06T17:26:33.197Z,16.83
2019-04-06T17:29:17.328Z,19.27
2019-04-06T17:32:03.028Z,16.23
2019-04-06T17:34:55.396Z,14.70
2019-04-06T17:37:47.508Z,16.07
2019-04-06T17:40:40.594Z,16.82
2019-04-06T17:43:21.378Z,16.77
2019-04-06T17:46:17.569Z,19.23
2019-04-06T17:49:07.747Z,19.37
2019-04-06T17:51:47.570Z,19.43
2019-04-06T17:54:33.514Z,16.80
2019-04-06T17:57:16.430Z,16.10
2019-04-06T18:00:06.451Z,15.93
2019-04-06T18:02:56.558Z,21.17
2019-04-06T18:05:43.762Z,17.33
2019-04-06T18:08:21.230Z,23.27
2019-04-06T18:11:05.193Z,15.97
2019-04-06T18:13:47.328Z,18.07
2019-04-06T18:16:15.548Z,17.60
2019-04-06T18:18:44.110Z,19.90
2019-04-06T18:21:12.305Z,16.53
2019-04-06T18:23:42.545Z,17.17
2019-04-06T18:26:10.731Z,16.27
2019-04-06T18:28:38.977Z,17.03
2019-04-06T18:31:19.211Z,16.03
2019-04-06T18:33:48.085Z,18.37
2019-04-06T18:36:16.270Z,16.03
2019-04-06T18:38:48.328Z,15.50
2019-04-06T18:41:17.409Z,23.40
2019-04-06T18:43:46.439Z,17.53
2019-04-06T18:46:15.915Z,20.37
2019-04-06T18:48:44.816Z,17.30
2019-04-06T18:51:13.685Z,20.80
2019-04-06T18:53:42.606Z,20.65
2019-04-06T18:56:11.854Z,18.43
2019-04-06T18:58:43.108Z,19.13
2019-04-06T19:01:11.599Z,20.17
2019-04-06T19:03:41.302Z,17.40
2019-04-06T19:06:09.959Z,20.00
2019-04-06T19:08:39.180Z,20.03
2019-04-06T19:11:08.114Z,16.97
2019-04-06T19:13:37.618Z,23.03
2019-04-06T19:16:06.519Z,19.07
2019-04-06T19:18:35.315Z,21.00
2019-04-06T19:21:03.313Z,18.77
2019-04-06T19:23:31.341Z,19.50
2019-04-06T19:25:59.362Z,19.13
2019-04-06T19:28:30.073Z,17.53
2019-04-06T19:30:58.108Z,19.33
2019-04-06T19:33:27.256Z,19.20
2019-04-06T19:35:56.362Z,20.43
2019-04-06T19:38:24.620Z,19.07
2019-04-06T19:40:53.015Z,22.73
2019-04-06T19:43:21.060Z,20.60
2019-04-06T19:45:49.050Z,23.33
2019-04-06T19:48:17.102Z,25.20
2019-04-06T19:50:45.164Z,18.93
2019-04-06T19:53:13.523Z,22.80
2019-04-06T19:55:41.568Z,23.23
2019-04-06T19:58:09.580Z,20.33
2019-04-06T20:00:37.592Z,19.25
2019-04-06T20:03:05.636Z,21.70
2019-04-06T20:05:35.638Z,19.87
2019-04-06T20:08:03.651Z,16.37
2019-04-06T20:10:31.714Z,18.35
2019-04-06T20:13:00.228Z,18.50
2019-04-06T20:15:28.746Z,20.57
2019-04-06T20:17:56.740Z,20.07
2019-04-06T20:20:24.730Z,18.77
2019-04-06T20:22:52.792Z,18.43
2019-04-06T20:25:20.855Z,20.63
2019-04-06T20:27:48.942Z,22.63
2019-04-06T20:30:17.160Z,17.57
2019-04-06T20:32:45.844Z,21.87
2019-04-06T20:35:13.872Z,19.93
2019-04-06T20:37:42.280Z,20.03
2019-04-06T20:40:10.342Z,16.87
2019-04-06T20:42:38.437Z,18.60
2019-04-06T20:45:06.542Z,20.00
2019-04-06T20:47:34.682Z,16.77
2019-04-06T20:50:02.812Z,19.33
2019-04-06T20:52:30.842Z,19.30
2019-04-06T20:54:59.039Z,25.27
2019-04-06T20:57:27.239Z,15.27
2019-04-06T20:59:55.276Z,17.73
2019-04-06T21:02:23.405Z,20.68
2019-04-06T21:04:51.425Z,16.40
2019-04-06T21:07:19.511Z,19.30
2019-04-06T21:09:47.676Z,21.03
2019-04-06T21:12:15.986Z,22.20
2019-04-06T21:14:45.495Z,19.90
2019-04-06T21:17:13.603Z,17.70
2019-04-06T21:19:41.733Z,18.10
2019-04-06T21:22:10.671Z,17.00
2019-04-06T21:24:39.359Z,21.87
2019-04-06T21:27:07.669Z,17.07
2019-04-06T21:29:35.741Z,18.17
2019-04-06T21:32:03.773Z,20.83
2019-04-06T21:34:31.811Z,18.17
2019-04-06T21:36:59.818Z,21.13
2019-04-06T21:39:27.940Z,20.70
2019-04-06T21:41:56.506Z,22.40
2019-04-06T21:44:24.563Z,17.93
2019-04-06T21:46:52.634Z,16.50
2019-04-06T21:49:21.155Z,20.23
2019-04-06T21:51:49.651Z,17.90
2019-04-06T21:54:17.661Z,19.00
2019-04-06T21:56:45.694Z,20.03
2019-04-06T21:59:15.389Z,20.17
2019-04-06T22:01:43.465Z,21.10
2019-04-06T22:04:23.091Z,19.63
2019-04-06T22:06:41.370Z,17.53
2019-04-06T22:09:13.810Z,19.77
2019-04-06T22:11:42.719Z,17.63
2019-04-06T22:14:12.465Z,19.23
2019-04-06T22:16:41.804Z,17.53
2019-04-06T22:19:11.140Z,20.37
2019-04-06T22:21:40.953Z,19.33
2019-04-06T22:24:09.622Z,19.20
2019-04-06T22:26:39.375Z,16.47
2019-04-06T22:29:09.171Z,20.73
2019-04-06T22:31:38.056Z,17.97
2019-04-06T22:34:07.027Z,20.27
2019-04-06T22:36:36.827Z,19.53
2019-04-06T22:39:09.038Z,20.23
2019-04-06T22:41:37.966Z,20.57
2019-04-06T22:44:07.319Z,20.33
2019-04-06T22:46:35.563Z,20.70
2019-04-06T22:49:04.421Z,19.53
2019-04-06T22:51:32.829Z,21.10
2019-04-06T22:54:01.426Z,17.87
2019-04-06T22:56:29.641Z,19.90
2019-04-06T22:58:58.266Z,21.03
2019-04-06T23:01:28.068Z,20.97
2019-04-06T23:04:45.320Z,21.87
2019-04-06T23:07:09.867Z,19.20
2019-04-06T23:09:39.254Z,17.73
2019-04-06T23:12:08.608Z,21.23
2019-04-06T23:14:36.817Z,19.53
2019-04-06T23:17:05.355Z,18.37
2019-04-06T23:19:33.822Z,23.33
2019-04-06T23:22:02.176Z,19.83
2019-04-06T23:24:31.736Z,17.43
2019-04-06T23:26:59.881Z,21.73
2019-04-06T23:29:28.023Z,18.17
2019-04-06T23:31:56.835Z,16.80
2019-04-06T23:34:24.915Z,18.97
2019-04-06T23:36:52.917Z,22.73
2019-04-06T23:39:20.922Z,20.87
2019-04-06T23:41:49.468Z,21.47
2019-04-06T23:44:18.383Z,25.03
2019-04-06T23:46:46.784Z,22.10
2019-04-06T23:49:14.851Z,19.67
2019-04-06T23:51:42.859Z,18.60
2019-04-06T23:54:10.853Z,18.80
2019-04-06T23:56:38.866Z,20.00
2019-04-06T23:59:06.823Z,21.93
